sensor_id;sensor_type;location;lat;lon;timestamp;P1;durP1;ratioP1;P2;durP2;ratioP2
41887;SDS011;63122;52.424;13.458;2023-04-28T00:00:30;7.73;;;3.43;;
41887;SDS011;63122;52.424;13.458;2023-04-28T00:02:41;11.20;;;3.30;;
41887;SDS011;63122;52.424;13.458;2023-04-28T00:04:40;8.20;;;3.40;;
41887;SDS011;63122;52.424;13.458;2023-04-28T00:06:35;10.87;;;4.27;;
41887;SDS011;63122;52.424;13.458;2023-04-28T00:08:34;7.17;;;3.40;;
41887;SDS011;63122;52.424;13.458;2023-04-28T00:10:31;7.83;;;3.37;;
41887;SDS011;63122;52.424;13.458;2023-04-28T00:12:27;7.23;;;3.50;;
41887;SDS011;63122;52.424;13.458;2023-04-28T00:14:23;9.40;;;3.77;;
41887;SDS011;63122;52.424;13.458;2023-04-28T00:16:18;5.50;;;2.90;;
41887;SDS011;63122;52.424;13.458;2023-04-28T00:18:13;7.30;;;3.27;;
41887;SDS011;63122;52.424;13.458;2023-04-28T00:20:10;9.10;;;3.37;;
41887;SDS011;63122;52.424;13.458;2023-04-28T00:22:05;7.30;;;2.90;;
41887;SDS011;63122;52.424;13.458;2023-04-28T00:24:03;8.67;;;2.93;;
41887;SDS011;63122;52.424;13.458;2023-04-28T00:25:59;5.73;;;2.67;;
41887;SDS011;63122;52.424;13.458;2023-04-28T00:27:54;6.47;;;2.80;;
41887;SDS011;63122;52.424;13.458;2023-04-28T00:29:49;8.00;;;3.17;;
41887;SDS011;63122;52.424;13.458;2023-04-28T00:31:45;10.97;;;2.63;;
41887;SDS011;63122;52.424;13.458;2023-04-28T00:33:40;8.73;;;2.60;;
41887;SDS011;63122;52.424;13.458;2023-04-28T00:35:37;11.80;;;3.40;;
41887;SDS011;63122;52.424;13.458;2023-04-28T00:37:34;8.20;;;2.90;;
41887;SDS011;63122;52.424;13.458;2023-04-28T00:39:33;6.03;;;2.50;;
41887;SDS011;63122;52.424;13.458;2023-04-28T00:41:29;6.30;;;2.63;;
41887;SDS011;63122;52.424;13.458;2023-04-28T00:43:25;10.47;;;2.50;;
41887;SDS011;63122;52.424;13.458;2023-04-28T00:45:21;9.77;;;3.07;;
41887;SDS011;63122;52.424;13.458;2023-04-28T00:47:16;9.93;;;2.67;;
41887;SDS011;63122;52.424;13.458;2023-04-28T00:49:12;5.17;;;2.50;;
41887;SDS011;63122;52.424;13.458;2023-04-28T00:51:10;5.63;;;2.40;;
41887;SDS011;63122;52.424;13.458;2023-04-28T00:53:05;4.10;;;2.53;;
41887;SDS011;63122;52.424;13.458;2023-04-28T00:55:04;9.00;;;3.17;;
41887;SDS011;63122;52.424;13.458;2023-04-28T00:57:01;3.53;;;2.30;;
41887;SDS011;63122;52.424;13.458;2023-04-28T00:58:58;6.20;;;2.60;;
41887;SDS011;63122;52.424;13.458;2023-04-28T01:00:53;5.00;;;2.73;;
41887;SDS011;63122;52.424;13.458;2023-04-28T01:02:56;6.43;;;2.50;;
41887;SDS011;63122;52.424;13.458;2023-04-28T01:04:52;8.97;;;2.63;;
41887;SDS011;63122;52.424;13.458;2023-04-28T01:06:49;6.23;;;2.80;;
41887;SDS011;63122;52.424;13.458;2023-04-28T01:08:47;5.27;;;2.50;;
41887;SDS011;63122;52.424;13.458;2023-04-28T01:10:47;8.07;;;2.70;;
41887;SDS011;63122;52.424;13.458;2023-04-28T01:12:42;5.87;;;2.47;;
41887;SDS011;63122;52.424;13.458;2023-04-28T01:14:37;5.47;;;2.60;;
41887;SDS011;63122;52.424;13.458;2023-04-28T01:16:33;7.53;;;2.63;;
41887;SDS011;63122;52.424;13.458;2023-04-28T01:18:29;9.10;;;2.80;;
41887;SDS011;63122;52.424;13.458;2023-04-28T01:20:25;4.97;;;2.87;;
41887;SDS011;63122;52.424;13.458;2023-04-28T01:22:20;9.87;;;2.53;;
41887;SDS011;63122;52.424;13.458;2023-04-28T01:24:18;7.40;;;2.80;;
41887;SDS011;63122;52.424;13.458;2023-04-28T01:26:13;6.90;;;2.80;;
41887;SDS011;63122;52.424;13.458;2023-04-28T01:28:09;6.37;;;3.10;;
41887;SDS011;63122;52.424;13.458;2023-04-28T01:30:05;6.23;;;2.50;;
41887;SDS011;63122;52.424;13.458;2023-04-28T01:32:04;4.50;;;2.70;;
41887;SDS011;63122;52.424;13.458;2023-04-28T01:33:59;6.93;;;2.63;;
41887;SDS011;63122;52.424;13.458;2023-04-28T01:35:56;7.77;;;2.70;;
41887;SDS011;63122;52.424;13.458;2023-04-28T01:37:51;6.20;;;2.57;;
41887;SDS011;63122;52.424;13.458;2023-04-28T01:39:49;7.87;;;3.37;;
41887;SDS011;63122;52.424;13.458;2023-04-28T01:41:44;7.27;;;2.90;;
41887;SDS011;63122;52.424;13.458;2023-04-28T01:43:39;6.57;;;2.77;;
41887;SDS011;63122;52.424;13.458;2023-04-28T01:45:34;9.80;;;2.93;;
41887;SDS011;63122;52.424;13.458;2023-04-28T01:47:30;6.43;;;3.13;;
41887;SDS011;63122;52.424;13.458;2023-04-28T01:49:25;15.07;;;3.37;;
41887;SDS011;63122;52.424;13.458;2023-04-28T01:51:24;5.97;;;2.93;;
41887;SDS011;63122;52.424;13.458;2023-04-28T01:53:19;9.50;;;4.33;;
41887;SDS011;63122;52.424;13.458;2023-04-28T01:55:20;10.13;;;5.37;;
41887;SDS011;63122;52.424;13.458;2023-04-28T01:57:16;10.20;;;5.17;;
41887;SDS011;63122;52.424;13.458;2023-04-28T01:59:14;11.30;;;4.47;;
41887;SDS011;63122;52.424;13.458;2023-04-28T02:01:11;7.13;;;4.13;;
41887;SDS011;63122;52.424;13.458;2023-04-28T02:03:09;9.00;;;3.83;;
41887;SDS011;63122;52.424;13.458;2023-04-28T02:05:06;7.57;;;3.77;;
41887;SDS011;63122;52.424;13.458;2023-04-28T02:07:03;10.30;;;3.80;;
41887;SDS011;63122;52.424;13.458;2023-04-28T02:09:00;8.47;;;4.40;;
41887;SDS011;63122;52.424;13.458;2023-04-28T02:11:01;11.80;;;3.77;;
41887;SDS011;63122;52.424;13.458;2023-04-28T02:12:57;13.50;;;4.77;;
41887;SDS011;63122;52.424;13.458;2023-04-28T02:14:54;8.17;;;4.30;;
41887;SDS011;63122;52.424;13.458;2023-04-28T02:16:49;7.77;;;4.03;;
41887;SDS011;63122;52.424;13.458;2023-04-28T02:18:46;10.97;;;4.17;;
41887;SDS011;63122;52.424;13.458;2023-04-28T02:20:42;10.50;;;3.87;;
41887;SDS011;63122;52.424;13.458;2023-04-28T02:22:39;8.93;;;4.10;;
41887;SDS011;63122;52.424;13.458;2023-04-28T02:24:35;8.40;;;3.73;;
41887;SDS011;63122;52.424;13.458;2023-04-28T02:26:35;8.80;;;4.00;;
41887;SDS011;63122;52.424;13.458;2023-04-28T02:28:30;13.10;;;4.23;;
41887;SDS011;63122;52.424;13.458;2023-04-28T02:30:27;9.20;;;3.67;;
41887;SDS011;63122;52.424;13.458;2023-04-28T02:32:23;13.13;;;3.70;;
41887;SDS011;63122;52.424;13.458;2023-04-28T02:34:20;13.47;;;3.87;;
41887;SDS011;63122;52.424;13.458;2023-04-28T02:36:17;9.13;;;3.40;;
41887;SDS011;63122;52.424;13.458;2023-04-28T02:38:15;9.30;;;3.67;;
41887;SDS011;63122;52.424;13.458;2023-04-28T02:40:12;6.13;;;3.40;;
41887;SDS011;63122;52.424;13.458;2023-04-28T02:42:12;11.67;;;4.13;;
41887;SDS011;63122;52.424;13.458;2023-04-28T02:44:10;10.60;;;3.77;;
41887;SDS011;63122;52.424;13.458;2023-04-28T02:46:09;6.73;;;3.93;;
41887;SDS011;63122;52.424;13.458;2023-04-28T02:48:05;6.57;;;3.50;;
41887;SDS011;63122;52.424;13.458;2023-04-28T02:50:01;10.33;;;3.63;;
41887;SDS011;63122;52.424;13.458;2023-04-28T02:51:58;14.03;;;4.20;;
41887;SDS011;63122;52.424;13.458;2023-04-28T02:53:54;10.17;;;3.73;;
41887;SDS011;63122;52.424;13.458;2023-04-28T02:55:50;7.53;;;3.50;;
41887;SDS011;63122;52.424;13.458;2023-04-28T02:57:52;13.23;;;3.87;;
41887;SDS011;63122;52.424;13.458;2023-04-28T02:59:48;7.20;;;3.40;;
41887;SDS011;63122;52.424;13.458;2023-04-28T03:01:45;9.53;;;3.67;;
41887;SDS011;63122;52.424;13.458;2023-04-28T03:03:40;6.80;;;3.47;;
41887;SDS011;63122;52.424;13.458;2023-04-28T03:05:37;9.63;;;3.70;;
41887;SDS011;63122;52.424;13.458;2023-04-28T03:07:33;6.97;;;3.60;;
41887;SDS011;63122;52.424;13.458;2023-04-28T03:09:30;8.63;;;3.30;;
41887;SDS011;63122;52.424;13.458;2023-04-28T03:11:25;14.00;;;4.13;;
41887;SDS011;63122;52.424;13.458;2023-04-28T03:13:24;7.47;;;3.60;;
41887;SDS011;63122;52.424;13.458;2023-04-28T03:15:21;7.17;;;3.70;;
41887;SDS011;63122;52.424;13.458;2023-04-28T03:17:15;11.00;;;4.97;;
41887;SDS011;63122;52.424;13.458;2023-04-28T03:19:10;10.63;;;5.87;;
41887;SDS011;63122;52.424;13.458;2023-04-28T03:21:06;11.57;;;4.30;;
41887;SDS011;63122;52.424;13.458;2023-04-28T03:23:02;6.33;;;3.97;;
41887;SDS011;63122;52.424;13.458;2023-04-28T03:24:59;10.80;;;4.03;;
41887;SDS011;63122;52.424;13.458;2023-04-28T03:26:55;7.97;;;4.20;;
41887;SDS011;63122;52.424;13.458;2023-04-28T03:28:54;9.93;;;4.80;;
41887;SDS011;63122;52.424;13.458;2023-04-28T03:30:50;6.63;;;3.60;;
41887;SDS011;63122;52.424;13.458;2023-04-28T03:32:46;10.03;;;3.40;;
41887;SDS011;63122;52.424;13.458;2023-04-28T03:34:44;10.20;;;4.00;;
41887;SDS011;63122;52.424;13.458;2023-04-28T03:36:42;8.73;;;3.73;;
41887;SDS011;63122;52.424;13.458;2023-04-28T03:38:43;6.80;;;3.67;;
41887;SDS011;63122;52.424;13.458;2023-04-28T03:50:25;9.40;;;3.70;;
41887;SDS011;63122;52.424;13.458;2023-04-28T03:52:25;13.37;;;3.50;;
41887;SDS011;63122;52.424;13.458;2023-04-28T03:54:21;7.77;;;4.07;;
41887;SDS011;63122;52.424;13.458;2023-04-28T03:56:16;8.43;;;4.17;;
41887;SDS011;63122;52.424;13.458;2023-04-28T03:58:11;9.83;;;4.47;;
41887;SDS011;63122;52.424;13.458;2023-04-28T04:00:07;9.47;;;4.00;;
41887;SDS011;63122;52.424;13.458;2023-04-28T04:02:06;13.20;;;4.60;;
41887;SDS011;63122;52.424;13.458;2023-04-28T04:04:01;9.30;;;4.67;;
41887;SDS011;63122;52.424;13.458;2023-04-28T04:05:57;9.50;;;4.73;;
41887;SDS011;63122;52.424;13.458;2023-04-28T04:07:52;16.80;;;7.07;;
41887;SDS011;63122;52.424;13.458;2023-04-28T04:09:48;10.97;;;4.50;;
41887;SDS011;63122;52.424;13.458;2023-04-28T04:11:46;6.70;;;3.87;;
41887;SDS011;63122;52.424;13.458;2023-04-28T04:13:42;11.67;;;3.70;;
41887;SDS011;63122;52.424;13.458;2023-04-28T04:15:41;7.67;;;4.00;;
41887;SDS011;63122;52.424;13.458;2023-04-28T04:17:43;11.27;;;4.40;;
41887;SDS011;63122;52.424;13.458;2023-04-28T04:19:41;10.37;;;4.50;;
41887;SDS011;63122;52.424;13.458;2023-04-28T04:21:39;8.93;;;4.83;;
41887;SDS011;63122;52.424;13.458;2023-04-28T04:23:34;9.10;;;4.43;;
41887;SDS011;63122;52.424;13.458;2023-04-28T04:25:30;12.23;;;3.70;;
41887;SDS011;63122;52.424;13.458;2023-04-28T04:27:26;15.53;;;4.13;;
41887;SDS011;63122;52.424;13.458;2023-04-28T04:29:21;10.87;;;4.03;;
41887;SDS011;63122;52.424;13.458;2023-04-28T04:31:16;32.50;;;15.30;;
41887;SDS011;63122;52.424;13.458;2023-04-28T04:33:16;39.23;;;18.00;;
41887;SDS011;63122;52.424;13.458;2023-04-28T04:35:11;17.77;;;8.67;;
41887;SDS011;63122;52.424;13.458;2023-04-28T04:37:09;12.33;;;4.13;;
41887;SDS011;63122;52.424;13.458;2023-04-28T04:39:07;6.67;;;3.90;;
41887;SDS011;63122;52.424;13.458;2023-04-28T04:41:03;7.03;;;4.10;;
41887;SDS011;63122;52.424;13.458;2023-04-28T04:42:58;10.77;;;4.70;;
41887;SDS011;63122;52.424;13.458;2023-04-28T04:44:53;13.00;;;4.50;;
41887;SDS011;63122;52.424;13.458;2023-04-28T04:46:48;11.20;;;4.77;;
41887;SDS011;63122;52.424;13.458;2023-04-28T04:48:47;8.13;;;4.13;;
41887;SDS011;63122;52.424;13.458;2023-04-28T04:50:42;12.80;;;4.47;;
41887;SDS011;63122;52.424;13.458;2023-04-28T04:52:37;9.00;;;4.20;;
41887;SDS011;63122;52.424;13.458;2023-04-28T04:54:32;16.07;;;4.87;;
41887;SDS011;63122;52.424;13.458;2023-04-28T04:56:28;8.07;;;4.10;;
41887;SDS011;63122;52.424;13.458;2023-04-28T04:58:23;11.00;;;4.27;;
41887;SDS011;63122;52.424;13.458;2023-04-28T05:00:19;8.20;;;4.20;;
41887;SDS011;63122;52.424;13.458;2023-04-28T05:02:15;12.00;;;4.60;;
41887;SDS011;63122;52.424;13.458;2023-04-28T05:04:14;15.87;;;4.83;;
41887;SDS011;63122;52.424;13.458;2023-04-28T05:06:11;11.60;;;4.07;;
41887;SDS011;63122;52.424;13.458;2023-04-28T05:08:07;9.00;;;4.77;;
41887;SDS011;63122;52.424;13.458;2023-04-28T05:10:03;10.80;;;4.37;;
41887;SDS011;63122;52.424;13.458;2023-04-28T05:12:03;11.27;;;4.33;;
41887;SDS011;63122;52.424;13.458;2023-04-28T05:14:00;14.90;;;3.83;;
41887;SDS011;63122;52.424;13.458;2023-04-28T05:16:01;11.07;;;3.97;;
41887;SDS011;63122;52.424;13.458;2023-04-28T05:17:58;12.50;;;4.40;;
41887;SDS011;63122;52.424;13.458;2023-04-28T05:20:07;7.40;;;3.83;;
41887;SDS011;63122;52.424;13.458;2023-04-28T05:22:06;21.57;;;4.40;;
41887;SDS011;63122;52.424;13.458;2023-04-28T05:24:05;13.13;;;3.83;;
41887;SDS011;63122;52.424;13.458;2023-04-28T05:26:02;8.90;;;4.37;;
41887;SDS011;63122;52.424;13.458;2023-04-28T05:28:00;11.93;;;4.40;;
41887;SDS011;63122;52.424;13.458;2023-04-28T05:30:00;7.27;;;3.60;;
41887;SDS011;63122;52.424;13.458;2023-04-28T05:31:59;12.90;;;4.37;;
41887;SDS011;63122;52.424;13.458;2023-04-28T05:33:54;13.33;;;4.47;;
41887;SDS011;63122;52.424;13.458;2023-04-28T05:35:52;11.23;;;4.17;;
41887;SDS011;63122;52.424;13.458;2023-04-28T05:37:48;9.13;;;3.70;;
41887;SDS011;63122;52.424;13.458;2023-04-28T05:39:43;10.20;;;3.90;;
41887;SDS011;63122;52.424;13.458;2023-04-28T05:41:40;8.63;;;4.63;;
41887;SDS011;63122;52.424;13.458;2023-04-28T05:43:35;7.60;;;3.90;;
41887;SDS011;63122;52.424;13.458;2023-04-28T05:45:32;12.67;;;3.90;;
41887;SDS011;63122;52.424;13.458;2023-04-28T05:47:28;9.23;;;4.33;;
41887;SDS011;63122;52.424;13.458;2023-04-28T05:49:23;8.83;;;3.60;;
41887;SDS011;63122;52.424;13.458;2023-04-28T05:51:21;8.63;;;3.43;;
41887;SDS011;63122;52.424;13.458;2023-04-28T05:53:19;12.07;;;3.77;;
41887;SDS011;63122;52.424;13.458;2023-04-28T05:55:17;9.73;;;4.13;;
41887;SDS011;63122;52.424;13.458;2023-04-28T05:57:14;8.50;;;3.43;;
41887;SDS011;63122;52.424;13.458;2023-04-28T05:59:14;13.13;;;3.70;;
41887;SDS011;63122;52.424;13.458;2023-04-28T06:01:10;9.83;;;3.90;;
41887;SDS011;63122;52.424;13.458;2023-04-28T06:03:10;11.47;;;3.50;;
41887;SDS011;63122;52.424;13.458;2023-04-28T06:05:10;15.80;;;4.33;;
41887;SDS011;63122;52.424;13.458;2023-04-28T06:07:12;10.37;;;4.53;;
41887;SDS011;63122;52.424;13.458;2023-04-28T06:09:08;9.23;;;3.37;;
41887;SDS011;63122;52.424;13.458;2023-04-28T06:11:04;9.80;;;3.07;;
41887;SDS011;63122;52.424;13.458;2023-04-28T06:13:06;8.13;;;3.40;;
41887;SDS011;63122;52.424;13.458;2023-04-28T06:15:04;12.10;;;3.70;;
41887;SDS011;63122;52.424;13.458;2023-04-28T06:17:00;9.40;;;3.80;;
41887;SDS011;63122;52.424;13.458;2023-04-28T06:18:56;8.87;;;3.53;;
41887;SDS011;63122;52.424;13.458;2023-04-28T06:20:51;7.73;;;3.67;;
41887;SDS011;63122;52.424;13.458;2023-04-28T06:22:50;8.00;;;3.37;;
41887;SDS011;63122;52.424;13.458;2023-04-28T06:24:45;8.80;;;3.60;;
41887;SDS011;63122;52.424;13.458;2023-04-28T06:26:41;9.37;;;4.17;;
41887;SDS011;63122;52.424;13.458;2023-04-28T06:28:36;9.67;;;3.87;;
41887;SDS011;63122;52.424;13.458;2023-04-28T06:30:32;8.80;;;4.20;;
41887;SDS011;63122;52.424;13.458;2023-04-28T06:32:29;10.40;;;4.20;;
41887;SDS011;63122;52.424;13.458;2023-04-28T06:34:25;12.27;;;4.17;;
41887;SDS011;63122;52.424;13.458;2023-04-28T06:36:22;12.30;;;3.87;;
41887;SDS011;63122;52.424;13.458;2023-04-28T06:38:20;8.60;;;3.87;;
41887;SDS011;63122;52.424;13.458;2023-04-28T06:40:16;12.10;;;4.27;;
41887;SDS011;63122;52.424;13.458;2023-04-28T06:42:11;11.40;;;4.33;;
41887;SDS011;63122;52.424;13.458;2023-04-28T06:44:09;14.27;;;4.67;;
41887;SDS011;63122;52.424;13.458;2023-04-28T06:46:06;10.03;;;4.57;;
41887;SDS011;63122;52.424;13.458;2023-04-28T06:48:02;7.53;;;4.17;;
41887;SDS011;63122;52.424;13.458;2023-04-28T06:49:59;12.70;;;4.37;;
41887;SDS011;63122;52.424;13.458;2023-04-28T06:51:55;9.40;;;4.47;;
41887;SDS011;63122;52.424;13.458;2023-04-28T06:53:54;10.70;;;4.40;;
41887;SDS011;63122;52.424;13.458;2023-04-28T06:55:49;7.57;;;4.17;;
41887;SDS011;63122;52.424;13.458;2023-04-28T06:57:45;11.07;;;5.00;;
41887;SDS011;63122;52.424;13.458;2023-04-28T06:59:41;12.87;;;4.20;;
41887;SDS011;63122;52.424;13.458;2023-04-28T07:01:37;11.80;;;4.43;;
41887;SDS011;63122;52.424;13.458;2023-04-28T07:03:33;15.50;;;4.47;;
41887;SDS011;63122;52.424;13.458;2023-04-28T07:05:29;13.77;;;4.80;;
41887;SDS011;63122;52.424;13.458;2023-04-28T07:07:27;9.70;;;4.23;;
41887;SDS011;63122;52.424;13.458;2023-04-28T07:09:27;6.20;;;4.23;;
41887;SDS011;63122;52.424;13.458;2023-04-28T07:11:23;7.80;;;3.83;;
41887;SDS011;63122;52.424;13.458;2023-04-28T07:13:19;12.50;;;4.40;;
41887;SDS011;63122;52.424;13.458;2023-04-28T07:15:15;8.80;;;4.17;;
41887;SDS011;63122;52.424;13.458;2023-04-28T07:17:10;8.43;;;3.97;;
41887;SDS011;63122;52.424;13.458;2023-04-28T07:19:05;8.00;;;4.30;;
41887;SDS011;63122;52.424;13.458;2023-04-28T07:21:01;7.13;;;3.80;;
41887;SDS011;63122;52.424;13.458;2023-04-28T07:23:00;10.27;;;4.13;;
41887;SDS011;63122;52.424;13.458;2023-04-28T07:25:19;12.07;;;4.73;;
41887;SDS011;63122;52.424;13.458;2023-04-28T07:27:14;13.23;;;5.13;;
41887;SDS011;63122;52.424;13.458;2023-04-28T07:29:09;8.97;;;4.47;;
41887;SDS011;63122;52.424;13.458;2023-04-28T07:31:06;7.83;;;4.10;;
41887;SDS011;63122;52.424;13.458;2023-04-28T07:33:01;13.50;;;4.40;;
41887;SDS011;63122;52.424;13.458;2023-04-28T07:34:57;12.03;;;3.80;;
41887;SDS011;63122;52.424;13.458;2023-04-28T07:36:52;13.17;;;4.97;;
41887;SDS011;63122;52.424;13.458;2023-04-28T07:38:47;11.67;;;4.20;;
41887;SDS011;63122;52.424;13.458;2023-04-28T07:40:46;9.00;;;4.07;;
41887;SDS011;63122;52.424;13.458;2023-04-28T07:42:43;10.23;;;3.97;;
41887;SDS011;63122;52.424;13.458;2023-04-28T07:44:38;10.10;;;4.23;;
41887;SDS011;63122;52.424;13.458;2023-04-28T07:46:33;10.00;;;4.03;;
41887;SDS011;63122;52.424;13.458;2023-04-28T07:48:29;11.80;;;4.23;;
41887;SDS011;63122;52.424;13.458;2023-04-28T07:50:24;10.77;;;4.20;;
41887;SDS011;63122;52.424;13.458;2023-04-28T07:52:20;8.93;;;3.90;;
41887;SDS011;63122;52.424;13.458;2023-04-28T07:54:16;7.83;;;3.80;;
41887;SDS011;63122;52.424;13.458;2023-04-28T07:56:15;9.70;;;3.53;;
41887;SDS011;63122;52.424;13.458;2023-04-28T07:58:10;6.60;;;3.73;;
41887;SDS011;63122;52.424;13.458;2023-04-28T08:00:08;17.50;;;4.53;;
41887;SDS011;63122;52.424;13.458;2023-04-28T08:02:10;12.37;;;4.50;;
41887;SDS011;63122;52.424;13.458;2023-04-28T08:04:07;9.73;;;4.00;;
41887;SDS011;63122;52.424;13.458;2023-04-28T08:06:03;13.60;;;4.50;;
41887;SDS011;63122;52.424;13.458;2023-04-28T08:07:59;7.50;;;4.00;;
41887;SDS011;63122;52.424;13.458;2023-04-28T08:09:55;13.57;;;3.60;;
41887;SDS011;63122;52.424;13.458;2023-04-28T08:11:53;7.33;;;3.90;;
41887;SDS011;63122;52.424;13.458;2023-04-28T08:13:49;10.57;;;4.00;;
41887;SDS011;63122;52.424;13.458;2023-04-28T08:15:46;8.23;;;3.77;;
41887;SDS011;63122;52.424;13.458;2023-04-28T08:17:41;8.90;;;3.67;;
41887;SDS011;63122;52.424;13.458;2023-04-28T08:19:38;8.20;;;3.77;;
41887;SDS011;63122;52.424;13.458;2023-04-28T08:21:35;9.43;;;3.83;;
41887;SDS011;63122;52.424;13.458;2023-04-28T08:23:31;9.07;;;3.60;;
41887;SDS011;63122;52.424;13.458;2023-04-28T08:25:26;16.43;;;4.20;;
41887;SDS011;63122;52.424;13.458;2023-04-28T08:27:24;10.07;;;4.30;;
41887;SDS011;63122;52.424;13.458;2023-04-28T08:29:19;10.53;;;3.90;;
41887;SDS011;63122;52.424;13.458;2023-04-28T08:31:14;16.27;;;3.90;;
41887;SDS011;63122;52.424;13.458;2023-04-28T08:33:09;9.50;;;3.87;;
41887;SDS011;63122;52.424;13.458;2023-04-28T08:35:05;11.97;;;4.13;;
41887;SDS011;63122;52.424;13.458;2023-04-28T08:37:01;11.90;;;4.57;;
41887;SDS011;63122;52.424;13.458;2023-04-28T08:38:58;15.07;;;3.93;;
41887;SDS011;63122;52.424;13.458;2023-04-28T08:40:57;11.00;;;4.37;;
41887;SDS011;63122;52.424;13.458;2023-04-28T08:42:58;11.87;;;4.23;;
41887;SDS011;63122;52.424;13.458;2023-04-28T08:44:53;7.67;;;4.00;;
41887;SDS011;63122;52.424;13.458;2023-04-28T08:46:51;10.77;;;4.13;;
41887;SDS011;63122;52.424;13.458;2023-04-28T08:48:50;14.20;;;5.13;;
41887;SDS011;63122;52.424;13.458;2023-04-28T08:50:52;15.93;;;5.40;;
41887;SDS011;63122;52.424;13.458;2023-04-28T08:52:47;16.60;;;5.47;;
41887;SDS011;63122;52.424;13.458;2023-04-28T08:54:46;13.27;;;4.80;;
41887;SDS011;63122;52.424;13.458;2023-04-28T08:56:45;12.20;;;4.73;;
41887;SDS011;63122;52.424;13.458;2023-04-28T08:58:44;12.13;;;4.50;;
41887;SDS011;63122;52.424;13.458;2023-04-28T09:00:39;10.03;;;4.60;;
41887;SDS011;63122;52.424;13.458;2023-04-28T09:02:36;13.40;;;5.30;;
41887;SDS011;63122;52.424;13.458;2023-04-28T09:04:34;14.97;;;5.63;;
41887;SDS011;63122;52.424;13.458;2023-04-28T09:06:35;12.73;;;5.80;;
41887;SDS011;63122;52.424;13.458;2023-04-28T09:08:31;13.67;;;5.57;;
41887;SDS011;63122;52.424;13.458;2023-04-28T09:10:29;14.43;;;5.00;;
41887;SDS011;63122;52.424;13.458;2023-04-28T09:12:35;9.50;;;5.60;;
41887;SDS011;63122;52.424;13.458;2023-04-28T09:14:37;18.03;;;5.33;;
41887;SDS011;63122;52.424;13.458;2023-04-28T09:16:38;12.70;;;5.00;;
41887;SDS011;63122;52.424;13.458;2023-04-28T09:18:39;15.87;;;5.17;;
41887;SDS011;63122;52.424;13.458;2023-04-28T09:20:50;13.43;;;5.27;;
41887;SDS011;63122;52.424;13.458;2023-04-28T09:29:01;12.27;;;6.33;;
41887;SDS011;63122;52.424;13.458;2023-04-28T09:31:08;14.23;;;6.13;;
41887;SDS011;63122;52.424;13.458;2023-04-28T09:33:16;19.00;;;5.30;;
41887;SDS011;63122;52.424;13.458;2023-04-28T09:35:12;11.60;;;5.10;;
41887;SDS011;63122;52.424;13.458;2023-04-28T09:37:13;10.18;;;5.18;;
41887;SDS011;63122;52.424;13.458;2023-04-28T09:39:11;11.63;;;5.17;;
41887;SDS011;63122;52.424;13.458;2023-04-28T09:41:06;17.33;;;5.47;;
41887;SDS011;63122;52.424;13.458;2023-04-28T09:43:02;11.48;;;5.78;;
41887;SDS011;63122;52.424;13.458;2023-04-28T09:45:12;15.40;;;5.50;;
41887;SDS011;63122;52.424;13.458;2023-04-28T09:47:20;12.18;;;5.13;;
41887;SDS011;63122;52.424;13.458;2023-04-28T09:49:16;9.85;;;4.93;;
41887;SDS011;63122;52.424;13.458;2023-04-28T09:51:11;11.60;;;4.87;;
41887;SDS011;63122;52.424;13.458;2023-04-28T09:53:15;9.25;;;5.18;;
41887;SDS011;63122;52.424;13.458;2023-04-28T09:55:13;12.65;;;5.10;;
41887;SDS011;63122;52.424;13.458;2023-04-28T09:57:12;10.57;;;5.30;;
41887;SDS011;63122;52.424;13.458;2023-04-28T09:59:08;8.70;;;5.38;;
41887;SDS011;63122;52.424;13.458;2023-04-28T10:01:05;9.10;;;5.13;;
41887;SDS011;63122;52.424;13.458;2023-04-28T10:03:07;14.27;;;5.65;;
41887;SDS011;63122;52.424;13.458;2023-04-28T10:05:04;11.40;;;5.38;;
41887;SDS011;63122;52.424;13.458;2023-04-28T10:07:02;15.43;;;5.47;;
41887;SDS011;63122;52.424;13.458;2023-04-28T10:08:58;13.00;;;5.68;;
41887;SDS011;63122;52.424;13.458;2023-04-28T10:10:54;10.63;;;5.60;;
41887;SDS011;63122;52.424;13.458;2023-04-28T10:12:50;13.40;;;5.20;;
41887;SDS011;63122;52.424;13.458;2023-04-28T10:14:45;15.27;;;5.03;;
41887;SDS011;63122;52.424;13.458;2023-04-28T10:16:41;11.65;;;5.32;;
41887;SDS011;63122;52.424;13.458;2023-04-28T10:18:42;16.10;;;5.38;;
41887;SDS011;63122;52.424;13.458;2023-04-28T10:20:41;11.60;;;5.70;;
41887;SDS011;63122;52.424;13.458;2023-04-28T10:22:46;14.48;;;5.82;;
41887;SDS011;63122;52.424;13.458;2023-04-28T10:25:05;13.00;;;5.68;;
41887;SDS011;63122;52.424;13.458;2023-04-28T10:27:14;18.85;;;6.32;;
41887;SDS011;63122;52.424;13.458;2023-04-28T10:29:15;11.23;;;6.35;;
41887;SDS011;63122;52.424;13.458;2023-04-28T10:31:13;18.50;;;5.90;;
41887;SDS011;63122;52.424;13.458;2023-04-28T10:33:23;15.43;;;5.50;;
41887;SDS011;63122;52.424;13.458;2023-04-28T10:35:43;12.13;;;5.95;;
41887;SDS011;63122;52.424;13.458;2023-04-28T10:42:50;12.35;;;5.38;;
41887;SDS011;63122;52.424;13.458;2023-04-28T10:44:49;12.95;;;5.63;;
41887;SDS011;63122;52.424;13.458;2023-04-28T10:46:58;15.30;;;6.40;;
41887;SDS011;63122;52.424;13.458;2023-04-28T11:56:38;14.85;;;5.38;;
41887;SDS011;63122;52.424;13.458;2023-04-28T11:58:58;15.45;;;6.25;;
41887;SDS011;63122;52.424;13.458;2023-04-28T12:01:06;12.38;;;5.90;;
41887;SDS011;63122;52.424;13.458;2023-04-28T12:03:06;14.13;;;5.40;;
41887;SDS011;63122;52.424;13.458;2023-04-28T12:05:06;13.95;;;5.70;;
41887;SDS011;63122;52.424;13.458;2023-04-28T12:07:04;12.95;;;5.70;;
41887;SDS011;63122;52.424;13.458;2023-04-28T12:09:13;11.85;;;6.10;;
41887;SDS011;63122;52.424;13.458;2023-04-28T12:11:12;12.23;;;5.30;;
41887;SDS011;63122;52.424;13.458;2023-04-28T12:13:18;10.75;;;5.88;;
41887;SDS011;63122;52.424;13.458;2023-04-28T12:15:15;25.95;;;5.93;;
41887;SDS011;63122;52.424;13.458;2023-04-28T12:17:21;13.10;;;5.80;;
41887;SDS011;63122;52.424;13.458;2023-04-28T12:19:19;12.57;;;5.82;;
41887;SDS011;63122;52.424;13.458;2023-04-28T12:21:19;13.05;;;5.90;;
41887;SDS011;63122;52.424;13.458;2023-04-28T12:23:15;21.70;;;6.22;;
41887;SDS011;63122;52.424;13.458;2023-04-28T12:25:22;10.00;;;5.57;;
41887;SDS011;63122;52.424;13.458;2023-04-28T12:27:18;12.80;;;6.13;;
41887;SDS011;63122;52.424;13.458;2023-04-28T12:31:46;12.23;;;5.57;;
41887;SDS011;63122;52.424;13.458;2023-04-28T12:33:44;17.25;;;5.93;;
41887;SDS011;63122;52.424;13.458;2023-04-28T12:35:39;19.48;;;5.60;;
41887;SDS011;63122;52.424;13.458;2023-04-28T12:37:35;9.52;;;5.28;;
41887;SDS011;63122;52.424;13.458;2023-04-28T12:39:33;16.75;;;6.53;;
41887;SDS011;63122;52.424;13.458;2023-04-28T12:41:30;15.43;;;5.85;;
41887;SDS011;63122;52.424;13.458;2023-04-28T12:43:31;11.60;;;5.43;;
41887;SDS011;63122;52.424;13.458;2023-04-28T12:45:30;14.25;;;6.00;;
41887;SDS011;63122;52.424;13.458;2023-04-28T12:47:29;13.52;;;5.75;;
41887;SDS011;63122;52.424;13.458;2023-04-28T12:49:27;16.15;;;6.30;;
41887;SDS011;63122;52.424;13.458;2023-04-28T12:51:22;11.27;;;5.43;;
41887;SDS011;63122;52.424;13.458;2023-04-28T12:53:20;12.13;;;5.47;;
41887;SDS011;63122;52.424;13.458;2023-04-28T12:55:15;10.57;;;5.35;;
41887;SDS011;63122;52.424;13.458;2023-04-28T12:57:11;11.70;;;5.15;;
41887;SDS011;63122;52.424;13.458;2023-04-28T12:59:07;11.98;;;4.85;;
41887;SDS011;63122;52.424;13.458;2023-04-28T13:01:04;14.75;;;5.45;;
41887;SDS011;63122;52.424;13.458;2023-04-28T13:03:00;14.88;;;5.25;;
41887;SDS011;63122;52.424;13.458;2023-04-28T13:04:55;13.77;;;5.38;;